This is the latest recevied weather packets stored in our database for station/object DO1YM-13. If no packets are shown the sender has not sent any weather packets the latest 10 day(s).
| Time | Temp. | Humidity | Pressure | Rain* | Wind** | Luminosity | Snow |
|---|---|---|---|---|---|---|---|
| 1788166547 | 64° F | 86% | 755.7 mmHg | 0 in | - | 293 W/m² | - |
| 1788166247 | 63° F | 88% | 755.7 mmHg | 0 in | - | 231 W/m² | - |
| 1788165948 | 61° F | 95% | 755.7 mmHg | 0.01 in | - | 563 W/m² | - |
| 1788165650 | 61° F | 92% | 755.7 mmHg | 0.01 in | - | 96 W/m² | - |
| 1788165347 | 60° F | 93% | 755.9 mmHg | 0.01 in | - | 97 W/m² | - |
| 1788165048 | 60° F | 94% | 755.9 mmHg | 0.02 in | - | 69 W/m² | - |
| 1788164748 | 60° F | 93% | 755.9 mmHg | 0.02 in | - | 43 W/m² | - |
| 1788164448 | 60° F | 92% | 755.7 mmHg | 0.02 in | - | 35 W/m² | - |
| 1788164148 | 60° F | 93% | 755.9 mmHg | 0.03 in | - | 50 W/m² | - |
| 1788163848 | 60° F | 93% | 755.7 mmHg | 0.04 in | - | 50 W/m² | - |
| 1788163291 | 59° F | 92% | 755.4 mmHg | 0.07 in | - | 31 W/m² | - |
| 1788162949 | 59° F | 92% | 755.7 mmHg | 0.09 in | - | 35 W/m² | - |
| 1788162648 | 59° F | 93% | 755.7 mmHg | 0.09 in | - | 34 W/m² | - |
| 1788162347 | 59° F | 91% | 755.9 mmHg | 0.09 in | - | 44 W/m² | - |
| 1788162048 | 59° F | 92% | 755.7 mmHg | 0.09 in | - | 40 W/m² | - |
| 1788161748 | 59° F | 91% | 755.7 mmHg | 0.09 in | - | 64 W/m² | - |
| 1788161448 | 59° F | 91% | 755.4 mmHg | 0.08 in | - | 43 W/m² | - |
| 1788161148 | 59° F | 92% | 755.7 mmHg | 0.08 in | - | 31 W/m² | - |
| 1788160847 | 59° F | 91% | 755.7 mmHg | 0.08 in | - | 46 W/m² | - |
| 1788160547 | 59° F | 91% | 755.7 mmHg | 0.07 in | - | 51 W/m² | - |
| 1788160249 | 59° F | 89% | 755.4 mmHg | 0.06 in | - | 37 W/m² | - |
| 1788159947 | 60° F | 88% | 755.7 mmHg | 0.04 in | - | 15 W/m² | - |
| 1788159647 | 60° F | 87% | 755.7 mmHg | 0.02 in | - | 10 W/m² | - |
| 1788159348 | 60° F | 85% | 755.4 mmHg | 0.01 in | - | 11 W/m² | - |
| 1788159047 | 60° F | 86% | 755.7 mmHg | 0.01 in | - | 9 W/m² | - |
* Rain latest hour (hover to see other rain measurements)
** Current wind speed in m/s (hover to see current wind gust speed)